sensor_id;sensor_type;location;lat;lon;timestamp;P1;P2;P0
76043;PMS7003;64740;34.694;33.088;2024-02-16T00:04:31;4.3;3.9;2.2
76043;PMS7003;64740;34.694;33.088;2024-02-16T00:09:17;5.3;4.1;2.4
76043;PMS7003;64740;34.694;33.088;2024-02-16T00:14:33;4.8;4.2;2.5
76043;PMS7003;64740;34.694;33.088;2024-02-16T00:19:17;6.8;6;3.5
76043;PMS7003;64740;34.694;33.088;2024-02-16T00:24:17;4.8;3.9;2.3
76043;PMS7003;64740;34.694;33.088;2024-02-16T00:29:51;4.5;4.4;2.5
76043;PMS7003;64740;34.694;33.088;2024-02-16T00:34:43;4;3.2;2.1
76043;PMS7003;64740;34.694;33.088;2024-02-16T00:39:51;4.6;3.8;2.2
76043;PMS7003;64740;34.694;33.088;2024-02-16T00:44:43;4.5;3.6;2.2
76043;PMS7003;64740;34.694;33.088;2024-02-16T00:49:25;5.3;4.2;2.2
76043;PMS7003;64740;34.694;33.088;2024-02-16T00:54:41;4.4;3.4;2.1
76043;PMS7003;64740;34.694;33.088;2024-02-16T00:59:51;3.3;3.3;1.9
76043;PMS7003;64740;34.694;33.088;2024-02-16T01:04:35;4.2;3.4;2.1
76043;PMS7003;64740;34.694;33.088;2024-02-16T01:09:29;3.9;3.3;1.8
76043;PMS7003;64740;34.694;33.088;2024-02-16T01:14:51;4.6;3.6;2.2
76043;PMS7003;64740;34.694;33.088;2024-02-16T01:19:43;4.8;3.9;2.3
76043;PMS7003;64740;34.694;33.088;2024-02-16T01:24:51;4.8;4.1;2.1
76043;PMS7003;64740;34.694;33.088;2024-02-16T01:29:27;4.1;3.8;2
76043;PMS7003;64740;34.694;33.088;2024-02-16T01:34:49;4.6;4;2.3
76043;PMS7003;64740;34.694;33.088;2024-02-16T01:39:33;5.1;4.7;2.7
76043;PMS7003;64740;34.694;33.088;2024-02-16T01:44:29;4.6;3.9;2.5
76043;PMS7003;64740;34.694;33.088;2024-02-16T01:49:41;5.4;4.1;2.6
76043;PMS7003;64740;34.694;33.088;2024-02-16T01:54:17;5.3;4.5;2.7
76043;PMS7003;64740;34.694;33.088;2024-02-16T01:59:51;10.3;8.3;4.6
76043;PMS7003;64740;34.694;33.088;2024-02-16T02:04:17;22.3;18.3;10.6
76043;PMS7003;64740;34.694;33.088;2024-02-16T02:09:43;11;8.1;4.8
76043;PMS7003;64740;34.694;33.088;2024-02-16T02:14:29;5.9;4.6;2.7
76043;PMS7003;64740;34.694;33.088;2024-02-16T02:19:51;8.1;6.2;4
76043;PMS7003;64740;34.694;33.088;2024-02-16T02:24:51;6.5;5.2;3.3
76043;PMS7003;64740;34.694;33.088;2024-02-16T02:29:51;18.4;15.5;8.3
76043;PMS7003;64740;34.694;33.088;2024-02-16T02:34:23;8.8;7.6;4.5
76043;PMS7003;64740;34.694;33.088;2024-02-16T02:39:41;5.9;4.8;2.9
76043;PMS7003;64740;34.694;33.088;2024-02-16T02:44:17;11.6;8.7;5
76043;PMS7003;64740;34.694;33.088;2024-02-16T02:49:39;6.1;5.2;3.1
76043;PMS7003;64740;34.694;33.088;2024-02-16T02:54:51;4.8;4.2;2.9
76043;PMS7003;64740;34.694;33.088;2024-02-16T02:59:41;6.1;4.8;3
76043;PMS7003;64740;34.694;33.088;2024-02-16T03:04:17;5.5;4.6;2.8
76043;PMS7003;64740;34.694;33.088;2024-02-16T03:09:51;6.1;4.7;2.7
76043;PMS7003;64740;34.694;33.088;2024-02-16T03:14:51;5.1;4.5;2.8
76043;PMS7003;64740;34.694;33.088;2024-02-16T03:19:47;5.4;4.5;3
76043;PMS7003;64740;34.694;33.088;2024-02-16T03:24:31;5.3;4.7;2.8
76043;PMS7003;64740;34.694;33.088;2024-02-16T03:29:31;4.8;4.2;2.8
76043;PMS7003;64740;34.694;33.088;2024-02-16T03:34:17;4.8;4.2;2.6
76043;PMS7003;64740;34.694;33.088;2024-02-16T03:39:31;5.1;4.5;2.6
76043;PMS7003;64740;34.694;33.088;2024-02-16T03:44:43;5.3;4.6;2.7
76043;PMS7003;64740;34.694;33.088;2024-02-16T03:49:31;4.7;3.1;1.5
76043;PMS7003;64740;34.694;33.088;2024-02-16T03:54:51;5.4;3.8;2.4
76043;PMS7003;64740;34.694;33.088;2024-02-16T03:59:17;4.8;4.1;2.7
76043;PMS7003;64740;34.694;33.088;2024-02-16T04:04:51;4.7;3.9;2.2
76043;PMS7003;64740;34.694;33.088;2024-02-16T04:09:23;4.9;4.2;2.9
76043;PMS7003;64740;34.694;33.088;2024-02-16T04:14:41;4.2;3.8;2.4
76043;PMS7003;64740;34.694;33.088;2024-02-16T04:19:17;5.2;4.5;2.9
76043;PMS7003;64740;34.694;33.088;2024-02-16T04:24:39;5.9;4.7;2.9
76043;PMS7003;64740;34.694;33.088;2024-02-16T04:29:51;5.3;4.9;3.4
76043;PMS7003;64740;34.694;33.088;2024-02-16T04:34:51;5.9;4.8;3.5
76043;PMS7003;64740;34.694;33.088;2024-02-16T04:39:33;5.5;4.7;2.8
76043;PMS7003;64740;34.694;33.088;2024-02-16T04:44:37;4.8;4.2;3
76043;PMS7003;64740;34.694;33.088;2024-02-16T04:49:51;5.5;4.7;3.1
76043;PMS7003;64740;34.694;33.088;2024-02-16T04:54:33;6.8;5.1;3.4
76043;PMS7003;64740;34.694;33.088;2024-02-16T04:59:23;5.7;4.8;3.5
76043;PMS7003;64740;34.694;33.088;2024-02-16T05:04:25;5.8;4.7;3.1
76043;PMS7003;64740;34.694;33.088;2024-02-16T05:09:41;5.4;4.5;3
76043;PMS7003;64740;34.694;33.088;2024-02-16T05:14:17;6.2;5.3;3.2
76043;PMS7003;64740;34.694;33.088;2024-02-16T05:19:23;5.6;5.1;3.4
76043;PMS7003;64740;34.694;33.088;2024-02-16T05:24:25;6.7;5.7;3.4
76043;PMS7003;64740;34.694;33.088;2024-02-16T05:29:19;6.5;5.4;3.4
76043;PMS7003;64740;34.694;33.088;2024-02-16T05:34:33;6.4;5.5;3.6
76043;PMS7003;64740;34.694;33.088;2024-02-16T05:39:53;6.1;5.3;3.6
76043;PMS7003;64740;34.694;33.088;2024-02-16T05:44:45;5.3;4.8;3.1
76043;PMS7003;64740;34.694;33.088;2024-02-16T05:49:41;5.6;4.8;3.4
76043;PMS7003;64740;34.694;33.088;2024-02-16T05:54:24;5.9;5.2;3.5
76043;PMS7003;64740;34.694;33.088;2024-02-16T05:59:41;5.9;4.8;3.1
76043;PMS7003;64740;34.694;33.088;2024-02-16T06:04:25;5.6;4.8;3.1
76043;PMS7003;64740;34.694;33.088;2024-02-16T06:09:17;5;4.4;3
76043;PMS7003;64740;34.694;33.088;2024-02-16T06:14:27;4.1;3.7;2.3
76043;PMS7003;64740;34.694;33.088;2024-02-16T06:19:37;4.6;3.5;2.3
76043;PMS7003;64740;34.694;33.088;2024-02-16T06:24:43;4.4;3.7;2.5
76043;PMS7003;64740;34.694;33.088;2024-02-16T06:29:25;4.8;4.3;2.8
76043;PMS7003;64740;34.694;33.088;2024-02-16T06:34:43;4.6;3.9;2.3
76043;PMS7003;64740;34.694;33.088;2024-02-16T06:39:41;6.2;5.4;3.8
76043;PMS7003;64740;34.694;33.088;2024-02-16T06:44:25;5.7;5.5;3.4
76043;PMS7003;64740;34.694;33.088;2024-02-16T06:49:43;6;5.4;3
76043;PMS7003;64740;34.694;33.088;2024-02-16T06:54:25;5;4.2;2.5
76043;PMS7003;64740;34.694;33.088;2024-02-16T06:59:25;5.5;5;3.3
76043;PMS7003;64740;34.694;33.088;2024-02-16T07:04:53;6.6;5.4;3.3
76043;PMS7003;64740;34.694;33.088;2024-02-16T07:09:43;6.2;4.8;2.8
76043;PMS7003;64740;34.694;33.088;2024-02-16T07:14:53;4.7;3.9;2.3
76043;PMS7003;64740;34.694;33.088;2024-02-16T07:19:53;4.5;3.7;2.3
76043;PMS7003;64740;34.694;33.088;2024-02-16T07:24:25;3.5;3.1;1.9
76043;PMS7003;64740;34.694;33.088;2024-02-16T07:29:53;3;2.8;1.8
76043;PMS7003;64740;34.694;33.088;2024-02-16T07:34:19;2.6;2.2;1.2
76043;PMS7003;64740;34.694;33.088;2024-02-16T07:39:43;3.5;3;1.4
76043;PMS7003;64740;34.694;33.088;2024-02-16T07:44:31;2.6;2.3;1.5
76043;PMS7003;64740;34.694;33.088;2024-02-16T07:49:53;2.7;2;1
76043;PMS7003;64740;34.694;33.088;2024-02-16T07:54:35;3.4;2.8;1.5
76043;PMS7003;64740;34.694;33.088;2024-02-16T07:59:53;2.8;2.5;1.4
76043;PMS7003;64740;34.694;33.088;2024-02-16T08:04:35;3.9;3.1;1.5
76043;PMS7003;64740;34.694;33.088;2024-02-16T08:09:33;4.1;2.9;1.4
76043;PMS7003;64740;34.694;33.088;2024-02-16T08:14:17;3.3;2.3;1.2
76043;PMS7003;64740;34.694;33.088;2024-02-16T08:19:17;3.3;2.7;1.5
76043;PMS7003;64740;34.694;33.088;2024-02-16T08:24:35;3.3;2.6;1.5
76043;PMS7003;64740;34.694;33.088;2024-02-16T08:29:31;3.7;2.9;1.6
76043;PMS7003;64740;34.694;33.088;2024-02-16T08:34:35;3.7;2.9;1.6
76043;PMS7003;64740;34.694;33.088;2024-02-16T08:39:53;3.9;3.5;2.1
76043;PMS7003;64740;34.694;33.088;2024-02-16T08:44:45;4.2;3.8;2.3
76043;PMS7003;64740;34.694;33.088;2024-02-16T08:49:53;5.4;4.6;2.9
76043;PMS7003;64740;34.694;33.088;2024-02-16T08:54:53;5.1;4.8;3.1
76043;PMS7003;64740;34.694;33.088;2024-02-16T08:59:33;5.8;5.3;3.4
76043;PMS7003;64740;34.694;33.088;2024-02-16T09:04:53;5.3;5;3.3
76043;PMS7003;64740;34.694;33.088;2024-02-16T09:09:53;6.5;6;3.8
76043;PMS7003;64740;34.694;33.088;2024-02-16T09:14:43;7.3;6.2;4
76043;PMS7003;64740;34.694;33.088;2024-02-16T09:19:23;5.9;5.4;3.4
76043;PMS7003;64740;34.694;33.088;2024-02-16T09:24:41;6.5;5.3;3.2
76043;PMS7003;64740;34.694;33.088;2024-02-16T09:29:29;6.2;5.4;3.4
76043;PMS7003;64740;34.694;33.088;2024-02-16T09:34:53;5.8;5;3.1
76043;PMS7003;64740;34.694;33.088;2024-02-16T09:39:17;6.1;4.9;3.2
76043;PMS7003;64740;34.694;33.088;2024-02-16T09:44:45;5;3.9;2.2
76043;PMS7003;64740;34.694;33.088;2024-02-16T09:49:17;4.5;4;2.2
76043;PMS7003;64740;34.694;33.088;2024-02-16T09:54:32;4.5;3.8;2
76043;PMS7003;64740;34.694;33.088;2024-02-16T09:59:17;4.8;3.8;2.4
76043;PMS7003;64740;34.694;33.088;2024-02-16T10:04:33;4;3.1;1.9
76043;PMS7003;64740;34.694;33.088;2024-02-16T10:09:28;3.7;3.1;1.8
76043;PMS7003;64740;34.694;33.088;2024-02-16T10:14:25;4;3.3;1.8
76043;PMS7003;64740;34.694;33.088;2024-02-16T10:19:37;4.1;2.9;1.9
76043;PMS7003;64740;34.694;33.088;2024-02-16T10:24:33;4;3.4;1.9
76043;PMS7003;64740;34.694;33.088;2024-02-16T10:29:53;3.4;2.7;1.4
76043;PMS7003;64740;34.694;33.088;2024-02-16T10:34:53;3.3;3;1.8
76043;PMS7003;64740;34.694;33.088;2024-02-16T10:39:51;3.5;2.7;1.6
76043;PMS7003;64740;34.694;33.088;2024-02-16T10:44:41;3.4;2.9;1.7
76043;PMS7003;64740;34.694;33.088;2024-02-16T10:49:19;4;3.2;2
76043;PMS7003;64740;34.694;33.088;2024-02-16T10:54:18;3.5;2.9;1.8
76043;PMS7003;64740;34.694;33.088;2024-02-16T10:59:41;3.3;3.1;1.9
76043;PMS7003;64740;34.694;33.088;2024-02-16T11:04:53;3.4;2.8;1.5
76043;PMS7003;64740;34.694;33.088;2024-02-16T11:09:44;3.9;2.9;1.9
76043;PMS7003;64740;34.694;33.088;2024-02-16T11:14:36;4;3.4;1.9
76043;PMS7003;64740;34.694;33.088;2024-02-16T11:19:54;5;3.8;2.3
76043;PMS7003;64740;34.694;33.088;2024-02-16T11:24:54;5.2;4;2.4
76043;PMS7003;64740;34.694;33.088;2024-02-16T11:29:46;5.1;4.2;2.7
76043;PMS7003;64740;34.694;33.088;2024-02-16T11:34:35;5.8;5.4;3.2
76043;PMS7003;64740;34.694;33.088;2024-02-16T11:39:34;6.8;5.4;3.6
76043;PMS7003;64740;34.694;33.088;2024-02-16T11:44:17;6.4;5.6;3.2
76043;PMS7003;64740;34.694;33.088;2024-02-16T11:49:23;8.2;6.1;3.9
76043;PMS7003;64740;34.694;33.088;2024-02-16T11:54:17;6.6;5.1;2.9
76043;PMS7003;64740;34.694;33.088;2024-02-16T11:59:25;5.2;4.6;2.8
76043;PMS7003;64740;34.694;33.088;2024-02-16T12:04:41;4.8;3.5;2.1
76043;PMS7003;64740;34.694;33.088;2024-02-16T12:09:25;4.7;3.9;2.5
76043;PMS7003;64740;34.694;33.088;2024-02-16T12:14:52;3.3;3;1.9
76043;PMS7003;64740;34.694;33.088;2024-02-16T12:19:24;3.6;3;1.6
76043;PMS7003;64740;34.694;33.088;2024-02-16T12:24:19;3;2.5;1.4
76043;PMS7003;64740;34.694;33.088;2024-02-16T12:29:17;2.8;2.5;1.4
76043;PMS7003;64740;34.694;33.088;2024-02-16T12:34:35;2.9;2.6;1.3
76043;PMS7003;64740;34.694;33.088;2024-02-16T12:39:45;3.4;2.7;1.7
76043;PMS7003;64740;34.694;33.088;2024-02-16T12:44:43;3.2;2.7;1.6
76043;PMS7003;64740;34.694;33.088;2024-02-16T12:49:35;3.5;2.5;1.3
76043;PMS7003;64740;34.694;33.088;2024-02-16T12:54:54;3.5;2.8;1.5
76043;PMS7003;64740;34.694;33.088;2024-02-16T12:59:53;4.6;3.9;2.4
76043;PMS7003;64740;34.694;33.088;2024-02-16T13:04:45;4.8;4;2.2
76043;PMS7003;64740;34.694;33.088;2024-02-16T13:09:25;3.1;2.9;1.5
76043;PMS7003;64740;34.694;33.088;2024-02-16T13:14:25;3.9;2.9;1.7
76043;PMS7003;64740;34.694;33.088;2024-02-16T13:19:25;3.8;3.2;1.8
76043;PMS7003;64740;34.694;33.088;2024-02-16T13:24:17;5.2;3.7;2
76043;PMS7003;64740;34.694;33.088;2024-02-16T13:29:17;3.9;3.3;2
76043;PMS7003;64740;34.694;33.088;2024-02-16T13:34:33;5.3;4.5;2.4
76043;PMS7003;64740;34.694;33.088;2024-02-16T13:39:41;5.9;5;3.1
76043;PMS7003;64740;34.694;33.088;2024-02-16T13:44:17;6.1;5.2;3.1
76043;PMS7003;64740;34.694;33.088;2024-02-16T13:49:53;6;5.2;3.2
76043;PMS7003;64740;34.694;33.088;2024-02-16T13:54:45;7;6.1;4.2
76043;PMS7003;64740;34.694;33.088;2024-02-16T13:59:41;7.8;6.9;4.1
76043;PMS7003;64740;34.694;33.088;2024-02-16T14:04:17;8.3;6.4;4
76043;PMS7003;64740;34.694;33.088;2024-02-16T14:09:41;8.4;7.3;4.6
76043;PMS7003;64740;34.694;33.088;2024-02-16T14:14:43;7.2;6.6;4.6
76043;PMS7003;64740;34.694;33.088;2024-02-16T14:19:31;7.6;6.2;4.2
76043;PMS7003;64740;34.694;33.088;2024-02-16T14:24:17;8.2;7;4.5
76043;PMS7003;64740;34.694;33.088;2024-02-16T14:29:46;9.9;7.9;5.4
76043;PMS7003;64740;34.694;33.088;2024-02-16T14:34:53;11.2;9.5;6.2
76043;PMS7003;64740;34.694;33.088;2024-02-16T14:39:43;9.2;7.3;4.7
76043;PMS7003;64740;34.694;33.088;2024-02-16T14:44:43;10.3;8.8;5.4
76043;PMS7003;64740;34.694;33.088;2024-02-16T14:49:21;9;8;5.2
76043;PMS7003;64740;34.694;33.088;2024-02-16T14:54:31;10.2;8.6;5.9
76043;PMS7003;64740;34.694;33.088;2024-02-16T14:59:35;11.5;9.6;6.4
76043;PMS7003;64740;34.694;33.088;2024-02-16T15:04:33;8.4;7.2;4.6
76043;PMS7003;64740;34.694;33.088;2024-02-16T15:09:35;7.6;6.8;4.1
76043;PMS7003;64740;34.694;33.088;2024-02-16T15:14:53;6.4;5.7;3.7
76043;PMS7003;64740;34.694;33.088;2024-02-16T15:19:46;10.1;8.2;5.1
76043;PMS7003;64740;34.694;33.088;2024-02-16T15:24:53;11.8;10.3;6.5
76043;PMS7003;64740;34.694;33.088;2024-02-16T15:29:54;15.1;12.9;8.9
76043;PMS7003;64740;34.694;33.088;2024-02-16T15:34:17;17.5;15.2;9.9
76043;PMS7003;64740;34.694;33.088;2024-02-16T15:39:43;20.7;18.4;11.2
76043;PMS7003;64740;34.694;33.088;2024-02-16T15:44:53;22;18.7;12
76043;PMS7003;64740;34.694;33.088;2024-02-16T15:49:19;21.6;18.1;11.5
76043;PMS7003;64740;34.694;33.088;2024-02-16T15:54:41;23.4;20.9;13.4
76043;PMS7003;64740;34.694;33.088;2024-02-16T15:59:41;23.6;20.2;12.9
76043;PMS7003;64740;34.694;33.088;2024-02-16T16:04:47;20.4;17.5;10.7
76043;PMS7003;64740;34.694;33.088;2024-02-16T16:09:55;19.4;16.1;9.9
76043;PMS7003;64740;34.694;33.088;2024-02-16T16:14:37;14.3;12.2;7.8
76043;PMS7003;64740;34.694;33.088;2024-02-16T16:19:56;16.8;14.9;9.6
76043;PMS7003;64740;34.694;33.088;2024-02-16T16:24:37;16.6;15.2;9.9
76043;PMS7003;64740;34.694;33.088;2024-02-16T16:29:25;20;17.5;11
76043;PMS7003;64740;34.694;33.088;2024-02-16T16:34:18;19.4;17.1;11.6
76043;PMS7003;64740;34.694;33.088;2024-02-16T16:39:18;23.9;20.2;12.7
76043;PMS7003;64740;34.694;33.088;2024-02-16T16:44:26;23.5;20.6;13.2
76043;PMS7003;64740;34.694;33.088;2024-02-16T16:49:56;24;20.6;13
76043;PMS7003;64740;34.694;33.088;2024-02-16T16:54:48;23.3;20;13
76043;PMS7003;64740;34.694;33.088;2024-02-16T16:59:42;24.6;22.1;14.2
76043;PMS7003;64740;34.694;33.088;2024-02-16T17:04:56;23.6;20.5;13.8
76043;PMS7003;64740;34.694;33.088;2024-02-16T17:09:26;26.7;22.4;14.4
76043;PMS7003;64740;34.694;33.088;2024-02-16T17:14:54;23;20.5;13.3
76043;PMS7003;64740;34.694;33.088;2024-02-16T17:19:54;27.5;23.6;15
76043;PMS7003;64740;34.694;33.088;2024-02-16T17:24:46;29.3;25.1;17
76043;PMS7003;64740;34.694;33.088;2024-02-16T17:29:24;37;30.1;20.1
76043;PMS7003;64740;34.694;33.088;2024-02-16T17:34:42;38.9;32.2;21.5
76043;PMS7003;64740;34.694;33.088;2024-02-16T17:39:57;38.5;31.2;19.8
76043;PMS7003;64740;34.694;33.088;2024-02-16T17:44:56;33.7;29.2;19.2
76043;PMS7003;64740;34.694;33.088;2024-02-16T17:49:38;32.4;27.7;17.3
76043;PMS7003;64740;34.694;33.088;2024-02-16T17:54:56;31.1;26.9;17.4
76043;PMS7003;64740;34.694;33.088;2024-02-16T17:59:26;30.1;25.4;16
76043;PMS7003;64740;34.694;33.088;2024-02-16T18:04:26;27.4;23.5;15
76043;PMS7003;64740;34.694;33.088;2024-02-16T18:09:36;22.7;20.3;13.5
76043;PMS7003;64740;34.694;33.088;2024-02-16T18:14:18;22.6;19.4;12
76043;PMS7003;64740;34.694;33.088;2024-02-16T18:19:30;25.7;22;14.4
76043;PMS7003;64740;34.694;33.088;2024-02-16T18:24:18;26.5;22.6;15
76043;PMS7003;64740;34.694;33.088;2024-02-16T18:29:48;22.5;20;12.8
76043;PMS7003;64740;34.694;33.088;2024-02-16T18:34:34;15.8;14;9.2
76043;PMS7003;64740;34.694;33.088;2024-02-16T18:39:56;14.1;12.2;8
76043;PMS7003;64740;34.694;33.088;2024-02-16T18:44:18;13.8;12.7;8.1
76043;PMS7003;64740;34.694;33.088;2024-02-16T18:49:56;14.3;12.2;8
76043;PMS7003;64740;34.694;33.088;2024-02-16T18:54:18;13.6;11.7;7.5
76043;PMS7003;64740;34.694;33.088;2024-02-16T18:59:46;14.2;12.7;8.6
76043;PMS7003;64740;34.694;33.088;2024-02-16T19:04:32;15.8;12.9;8.5
76043;PMS7003;64740;34.694;33.088;2024-02-16T19:09:28;14;12.8;8.2
76043;PMS7003;64740;34.694;33.088;2024-02-16T19:14:46;14.1;12.3;8.3
76043;PMS7003;64740;34.694;33.088;2024-02-16T19:19:56;14.4;11.4;7
76043;PMS7003;64740;34.694;33.088;2024-02-16T19:24:28;11.4;10.5;6.7
76043;PMS7003;64740;34.694;33.088;2024-02-16T19:29:56;11;9.4;6.7
76043;PMS7003;64740;34.694;33.088;2024-02-16T19:34:56;12.3;10.8;6.8
76043;PMS7003;64740;34.694;33.088;2024-02-16T19:39:48;11.7;10.4;7
76043;PMS7003;64740;34.694;33.088;2024-02-16T19:44:18;12.3;10.9;7
76043;PMS7003;64740;34.694;33.088;2024-02-16T19:49:18;11.4;9.4;5.9
76043;PMS7003;64740;34.694;33.088;2024-02-16T19:54:18;10.8;9.5;5.9
76043;PMS7003;64740;34.694;33.088;2024-02-16T19:59:26;14.3;11.8;7.6
76043;PMS7003;64740;34.694;33.088;2024-02-16T20:04:18;13.5;11.5;7.4
76043;PMS7003;64740;34.694;33.088;2024-02-16T20:09:26;12.8;11.6;7.4
76043;PMS7003;64740;34.694;33.088;2024-02-16T20:14:42;13.5;11.1;7.4
76043;PMS7003;64740;34.694;33.088;2024-02-16T20:19:35;12.5;10.9;7.4
76043;PMS7003;64740;34.694;33.088;2024-02-16T20:24:56;13.1;11.5;7.5
76043;PMS7003;64740;34.694;33.088;2024-02-16T20:29:40;12.1;10.8;7.3
76043;PMS7003;64740;34.694;33.088;2024-02-16T20:34:28;12.3;10.9;7.2
76043;PMS7003;64740;34.694;33.088;2024-02-16T20:39:32;14.1;12;7.9
76043;PMS7003;64740;34.694;33.088;2024-02-16T20:44:42;23.8;19.5;13
76043;PMS7003;64740;34.694;33.088;2024-02-16T20:49:46;29;26;17.2
76043;PMS7003;64740;34.694;33.088;2024-02-16T20:54:38;30.9;26.8;17.4
76043;PMS7003;64740;34.694;33.088;2024-02-16T20:59:38;21.9;19.5;13.3
76043;PMS7003;64740;34.694;33.088;2024-02-16T21:04:56;23.7;21.4;14
76043;PMS7003;64740;34.694;33.088;2024-02-16T21:09:50;25.2;22.3;14.4
76043;PMS7003;64740;34.694;33.088;2024-02-16T21:14:48;23.4;20.7;14.3
76043;PMS7003;64740;34.694;33.088;2024-02-16T21:19:38;18.8;15.6;10.4
76043;PMS7003;64740;34.694;33.088;2024-02-16T21:24:18;17.2;15.2;10.1
76043;PMS7003;64740;34.694;33.088;2024-02-16T21:29:26;15.8;14.1;9.8
76043;PMS7003;64740;34.694;33.088;2024-02-16T21:34:18;15.7;13.9;9.1
76043;PMS7003;64740;34.694;33.088;2024-02-16T21:39:18;15.7;13.2;8.7
76043;PMS7003;64740;34.694;33.088;2024-02-16T21:44:18;16.5;13.9;9.4
76043;PMS7003;64740;34.694;33.088;2024-02-16T21:49:34;16.8;14.7;9.6
76043;PMS7003;64740;34.694;33.088;2024-02-16T21:54:34;22.2;19.3;12.2
76043;PMS7003;64740;34.694;33.088;2024-02-16T21:59:42;28.1;23.6;14.3
76043;PMS7003;64740;34.694;33.088;2024-02-16T22:04:49;18.2;15.3;9.7
76043;PMS7003;64740;34.694;33.088;2024-02-16T22:09:40;16;13.7;8.7
76043;PMS7003;64740;34.694;33.088;2024-02-16T22:14:18;12.2;11.3;7.3
76043;PMS7003;64740;34.694;33.088;2024-02-16T22:19:34;9.5;8.7;5.8
76043;PMS7003;64740;34.694;33.088;2024-02-16T22:24:44;10;8.9;6.1
76043;PMS7003;64740;34.694;33.088;2024-02-16T22:29:32;8.9;7.4;4.7
76043;PMS7003;64740;34.694;33.088;2024-02-16T22:34:18;10.5;8.8;5.4
76043;PMS7003;64740;34.694;33.088;2024-02-16T22:39:48;10;9.4;5.8
76043;PMS7003;64740;34.694;33.088;2024-02-16T22:44:56;9.1;8.5;5.4
76043;PMS7003;64740;34.694;33.088;2024-02-16T22:49:18;9.8;8.6;5.2
76043;PMS7003;64740;34.694;33.088;2024-02-16T22:54:46;8.4;7.7;4.8
76043;PMS7003;64740;34.694;33.088;2024-02-16T22:59:22;7.3;6.5;4.4
76043;PMS7003;64740;34.694;33.088;2024-02-16T23:04:24;8.5;7.6;4.7
76043;PMS7003;64740;34.694;33.088;2024-02-16T23:09:24;8;7.2;4.8
76043;PMS7003;64740;34.694;33.088;2024-02-16T23:14:30;7.3;6.7;4.5
76043;PMS7003;64740;34.694;33.088;2024-02-16T23:19:18;6.7;6.1;3.8
76043;PMS7003;64740;34.694;33.088;2024-02-16T23:24:54;6.5;5.8;3.9
76043;PMS7003;64740;34.694;33.088;2024-02-16T23:29:46;6.3;5.5;3.9
76043;PMS7003;64740;34.694;33.088;2024-02-16T23:34:54;5.8;4.8;2.9
76043;PMS7003;64740;34.694;33.088;2024-02-16T23:39:54;6.8;5.9;3.9
76043;PMS7003;64740;34.694;33.088;2024-02-16T23:44:32;6.3;5.5;3.4
76043;PMS7003;64740;34.694;33.088;2024-02-16T23:49:54;6;5.3;3.4
76043;PMS7003;64740;34.694;33.088;2024-02-16T23:54:54;6.3;5.4;3.4
76043;PMS7003;64740;34.694;33.088;2024-02-16T23:59:44;6.1;5.3;3.4
